Flight Track Log - Related Links

Times and Time Zones

All times are in EST time to prevent confusion due to time zone crossing. See the N40F flight status page for this flight to view local times or setup timezone preferences in your user account.

Time Position Orientation Groundspeed Altitude Reporting Facility
EST Latitude Longitude Course Direction KTS MPH feet Rate Location/Type
Thu 01:12:40 PM 41.9000 -88.2667 304° West 110 127 1,700  Level Chicago TRACON
Thu 01:13:40 PM 41.9167 -88.3000 304° West 119 137 3,200 1,150 Climbing Chicago TRACON
Thu 01:14:40 PM 41.9500 -88.3000 360° North 136 157 4,000 400 Climbing Chicago TRACON
Thu 01:15:40 PM 42.0000 -88.2833 14° North 169 194 4,000  Level Chicago TRACON
Thu 01:16:40 PM 42.0500 -88.2833 360° North 178 205 4,000  Level Chicago TRACON
Thu 01:17:11 PM 42.0644 -88.2750 23° Northeast 167 192 4,000  Level Chicago Center
Thu 01:18:13 PM 42.1136 -88.2653 North 175 201 4,000  Level Chicago Center
Thu 01:19:15 PM 42.1628 -88.2561 North 178 205 4,000  Level Chicago Center
Thu 01:20:17 PM 42.2222 -88.2428 North 180 207 4,000  Level Chicago Center
Thu 01:21:19 PM 42.2717 -88.2344 North 180 207 4,000 339 Level Chicago Center
Thu 01:22:21 PM 42.3194 -88.2244 North 176 203 4,700 774 Climbing Chicago Center
Thu 01:23:23 PM 42.3592 -88.2336 350° North 144 166 5,600 629 Climbing Chicago Center
Thu 01:24:25 PM 42.3928 -88.2444 347° North 129 148 6,000 192 Climbing Chicago Center
Thu 01:25:28 PM 42.4319 -88.2544 349° North 139 160 6,000  Level Chicago Center
Thu 01:26:30 PM 42.4722 -88.2667 347° North 146 168 6,000  Level Chicago Center
Thu 01:27:32 PM 42.5217 -88.2767 352° North 149 171 6,000  Level Chicago Center
Thu 01:28:34 PM 42.5611 -88.2864 350° North 146 168 6,000  Level Chicago Center
Thu 01:29:36 PM 42.6022 -88.2950 351° North 148 170 6,000  Level Chicago Center
Thu 01:30:38 PM 42.6431 -88.3064 348° North 150 173 6,000  Level Chicago Center
Thu 01:31:40 PM 42.6844 -88.3150 351° North 150 173 6,000  Level Chicago Center
Thu 01:32:42 PM 42.7253 -88.3264 348° North 150 173 6,000  Level Chicago Center
Thu 01:33:44 PM 42.7742 -88.3392 349° North 150 173 6,000  Level Chicago Center
Thu 01:34:46 PM 42.8156 -88.3483 351° North 150 173 6,000  Level Chicago Center
Thu 01:35:49 PM 42.8581 -88.3575 351° North 153 176 6,000  Level Chicago Center
Thu 01:36:51 PM 42.8986 -88.3703 347° North 151 174 6,000  Level Chicago Center
Thu 01:37:53 PM 42.9408 -88.3786 352° North 153 176 6,000  Level Chicago Center
Thu 01:38:55 PM 42.9836 -88.3894 350° North 154 177 6,000  Level Chicago Center
Thu 01:39:57 PM 43.0350 -88.4014 350° North 156 180 6,000  Level Chicago Center
Thu 01:40:59 PM 43.0769 -88.4122 349° North 154 177 6,000  Level Chicago Center
Thu 01:42:01 PM 43.1192 -88.4225 350° North 155 178 6,000  Level Chicago Center
Thu 01:43:03 PM 43.1622 -88.4331 350° North 156 180 6,000 145 Level Chicago Center
Thu 01:44:05 PM 43.2058 -88.4433 350° North 157 181 6,300 288 Climbing Chicago Center
Thu 01:45:08 PM 43.2433 -88.4544 348° North 149 171 6,600 144 Climbing Chicago Center
Thu 01:46:10 PM 43.2911 -88.4653 351° North 145 167 6,600 240 Level Chicago Center
Thu 01:47:13 PM 43.3314 -88.4761 349° North 147 169 7,100 242 Climbing Chicago Center
Thu 01:48:14 PM 43.3689 -88.4856 350° North 143 165 7,100  Level Chicago Center
Thu 01:49:16 PM 43.4097 -88.4947 351° North 144 166 7,100  Level Chicago Center
Thu 01:50:18 PM 43.4581 -88.5067 350° North 146 168 7,100 -48 Level Chicago Center
Thu 01:51:20 PM 43.4947 -88.5167 349° North 153 176 7,000  Descending Chicago Center
Thu 01:52:22 PM 43.5356 -88.5267 350° North 152 175 7,100  Climbing Chicago Center
Thu 01:53:24 PM 43.5764 -88.5369 350° North 149 171 7,000 290 Descending Chicago Center
Thu 01:54:26 PM 43.6206 -88.5486 349° North 143 165 7,700 484 Climbing Chicago Center
Thu 01:55:28 PM 43.6542 -88.5578 349° North 132 152 8,000 144 Climbing Chicago Center
Thu 01:56:31 PM 43.6889 -88.5661 350° North 128 147 8,000  Level Chicago Center
Thu 01:57:33 PM 43.7267 -88.5756 350° North 132 152 8,000  Level Chicago Center
Thu 01:58:35 PM 43.7653 -88.5858 349° North 137 158 8,000  Level Chicago Center
Thu 01:59:37 PM 43.8042 -88.5956 350° North 140 161 8,000  Level Chicago Center
Thu 02:00:39 PM 43.8503 -88.6069 350° North 141 162 8,000  Level Chicago Center
Thu 02:01:41 PM 43.8886 -88.6164 350° North 140 161 8,000  Level Chicago Center
Thu 02:02:43 PM 43.9272 -88.6267 349° North 140 161 8,000  Level Chicago Center
Thu 02:03:45 PM 43.9658 -88.6364 350° North 141 162 8,000  Level Chicago Center
Thu 02:04:47 PM 44.0042 -88.6458 350° North 141 162 8,000  Level Chicago Center
Thu 02:05:49 PM 44.0419 -88.6567 348° North 139 160 8,000  Level Chicago Center
Thu 02:06:50 PM 44.0883 -88.6672 351° North 141 162 8,000  Level Chicago Center
Thu 02:08:00 PM 44.1256 -88.6769 349° North 139 160 8,000  Level Minneapolis Center
Thu 02:09:02 PM 44.1706 -88.6889 349° North 138 159 8,000  Level Minneapolis Center
Thu 02:10:04 PM 44.2078 -88.6975 351° North 137 158 8,000  Level Minneapolis Center
Thu 02:11:06 PM 44.2467 -88.7072 350° North 139 160 8,000  Level Minneapolis Center
Thu 02:12:08 PM 44.2847 -88.7169 350° North 140 161 8,000  Level Minneapolis Center
Thu 02:13:10 PM 44.3231 -88.7267 350° North 139 160 8,000  Level Minneapolis Center
Thu 02:14:12 PM 44.3611 -88.7369 349° North 139 160 8,000  Level Minneapolis Center
Thu 02:15:14 PM 44.4067 -88.7483 350° North 139 160 8,000  Level Minneapolis Center
Thu 02:16:16 PM 44.4439 -88.7581 349° North 137 158 8,000  Level Minneapolis Center
Thu 02:17:18 PM 44.4825 -88.7678 350° North 140 161 8,000  Level Minneapolis Center
Thu 02:18:20 PM 44.5206 -88.7772 350° North 140 161 8,000  Level Minneapolis Center
Thu 02:19:22 PM 44.5583 -88.7900 346° North 140 161 8,000  Level Minneapolis Center
Thu 02:20:24 PM 44.5958 -88.7992 350° North 138 159 8,000  Level Minneapolis Center
Thu 02:21:26 PM 44.6419 -88.8103 350° North 140 161 8,000  Level Minneapolis Center
Thu 02:22:28 PM 44.6800 -88.8206 349° North 140 161 8,000  Level Minneapolis Center
Thu 02:23:30 PM 44.7178 -88.8303 350° North 139 160 8,000 48 Level Minneapolis Center
Thu 02:24:32 PM 44.7550 -88.8411 348° North 138 159 8,100  Climbing Minneapolis Center
Thu 02:25:34 PM 44.7928 -88.8494 351° North 136 157 8,000 -48 Descending Minneapolis Center
Thu 02:26:36 PM 44.8303 -88.8594 349° North 138 159 8,000  Level Minneapolis Center
Thu 02:27:38 PM 44.8753 -88.8728 348° North 138 159 8,000  Level Minneapolis Center
Thu 02:28:40 PM 44.9131 -88.8814 351° North 138 159 8,000  Level Minneapolis Center
Thu 02:29:42 PM 44.9497 -88.8919 348° North 136 157 8,000  Level Minneapolis Center
Thu 02:30:44 PM 44.9867 -88.9008 350° North 136 157 8,000  Level Minneapolis Center
Thu 02:31:46 PM 45.0239 -88.9114 349° North 136 157 8,000 -48 Level Minneapolis Center
Thu 02:32:48 PM 45.0628 -88.9219 349° North 136 157 7,900  Descending Minneapolis Center
Thu 02:33:50 PM 45.0992 -88.9314 350° North 133 153 8,000 48 Climbing Minneapolis Center
Thu 02:34:52 PM 45.1425 -88.9442 348° North 133 153 8,000  Level Minneapolis Center
Thu 02:35:54 PM 45.1800 -88.9522 351° North 135 155 8,000  Level Minneapolis Center
Thu 02:36:56 PM 45.2169 -88.9617 350° North 134 154 8,000  Level Minneapolis Center
Thu 02:37:58 PM 45.2550 -88.9714 350° North 137 158 8,000  Level Minneapolis Center
Thu 02:39:00 PM 45.2931 -88.9814 350° North 138 159 8,000  Level Minneapolis Center
Thu 02:40:02 PM 45.3311 -88.9908 350° North 140 161 8,000  Level Minneapolis Center
Thu 02:41:04 PM 45.3683 -89.0022 348° North 139 160 8,000  Level Minneapolis Center
Thu 02:42:06 PM 45.4136 -89.0150 349° North 138 159 8,000  Level Minneapolis Center
Thu 02:43:08 PM 45.4522 -89.0250 350° North 139 160 8,000  Level Minneapolis Center
Thu 02:44:10 PM 45.4900 -89.0344 350° North 139 160 8,000  Level Minneapolis Center
Thu 02:45:12 PM 45.5281 -89.0450 349° North 139 160 8,000 48 Level Minneapolis Center
Thu 02:46:14 PM 45.5667 -89.0564 348° North 140 161 8,100 -293 Climbing Minneapolis Center
Thu 02:47:15 PM 45.6028 -89.0633 352° North 135 155 7,400 -683 Descending Minneapolis Center
Thu 02:48:17 PM 45.6506 -89.0767 349° North 142 163 6,700 -629 Descending Minneapolis Center
Thu 02:49:19 PM 45.6906 -89.0875 349° North 144 166 6,100 -532 Descending Minneapolis Center
Thu 02:50:21 PM 45.7317 -89.0975 350° North 148 170 5,600 -484 Descending Minneapolis Center
Thu 02:51:23 PM 45.7719 -89.1094 348° North 148 170 5,100 -435 Descending Minneapolis Center
Thu 02:52:25 PM 45.8111 -89.1197 350° North 146 168 4,700 -435 Descending Minneapolis Center
Thu 02:53:27 PM 45.8508 -89.1308 349° North 145 167 4,200 -435 Descending Minneapolis Center
Thu 02:54:29 PM 45.8903 -89.1411 350° North 145 167 3,800 -339 Descending Minneapolis Center
Thu 02:55:31 PM 45.9369 -89.1544 349° North 143 165 3,500 -145 Descending Minneapolis Center
Thu 02:56:33 PM 45.9775 -89.1661 349° North 146 168 3,500  Level Minneapolis Center
Thu 02:58:00 PM 46.0417 -89.1787 352° North  Level FlightAware Approximate
Thu 03:05:00 PM 46.1500 -89.2000 350° North  Level FlightAware Approximate
Thu 03:06:00 PM 46.1541 -89.2120 350° North  Level Estimated
Thu 03:07:00 PM 46.1541 -89.2120 350° North  Level Estimated

Login

Don't have an account? Register now (free) for customized features, flight alerts, and more!